Time;durP1;ratioP1;P1;durP2;ratioP2;P2;SDS_P1;SDS_P2;PMS_P1;PMS_P2;Temp;Humidity;BMP_temperature;BMP_pressure;BME280_temperature;BME280_humidity;BME280_pressure;Samples;Min_cycle;Max_cycle;Signal;HPM_P1;HPM_P2
2021/04/22 00:02:08;;;;;;;9.82;6.15;;;;;;;;;;5072821;28;20069;-76
2021/04/22 00:04:35;;;;;;;9.45;5.47;;;;;;;;;;5081410;28;20093;-69
2021/04/22 00:07:01;;;;;;;8.68;5.60;;;;;;;;;;5091705;28;20153;-73
2021/04/22 00:09:27;;;;;;;9.77;5.65;;;;;;;;;;5092828;28;20050;-67
2021/04/22 00:11:53;;;;;;;9.93;5.10;;;;;;;;;;5091671;28;20028;-69
2021/04/22 00:14:19;;;;;;;9.60;5.40;;;;;;;;;;5093132;28;20398;-66
2021/04/22 00:16:45;;;;;;;9.02;5.72;;;;;;;;;;5091579;28;20480;-69
2021/04/22 00:19:11;;;;;;;10.93;5.57;;;;;;;;;;5072674;28;20026;-69
2021/04/22 00:21:37;;;;;;;10.43;5.65;;;;;;;;;;5081136;28;20075;-69
2021/04/22 00:24:04;;;;;;;10.45;5.60;;;;;;;;;;5071079;28;20054;-66
2021/04/22 00:26:30;;;;;;;10.02;5.13;;;;;;;;;;5070869;28;20012;-68
2021/04/22 00:28:56;;;;;;;10.43;5.55;;;;;;;;;;5072332;28;20387;-67
2021/04/22 00:31:22;;;;;;;7.72;4.53;;;;;;;;;;5071257;28;20020;-71
2021/04/22 00:33:48;;;;;;;9.20;5.28;;;;;;;;;;5070957;28;20031;-70
2021/04/22 00:36:14;;;;;;;9.55;5.10;;;;;;;;;;5072156;28;20361;-70
2021/04/22 00:38:41;;;;;;;10.73;5.18;;;;;;;;;;5071508;28;20029;-71
2021/04/22 00:41:07;;;;;;;8.25;5.38;;;;;;;;;;5071869;28;20037;-67
2021/04/22 00:43:33;;;;;;;12.00;5.28;;;;;;;;;;5075685;28;20387;-67
2021/04/22 00:45:59;;;;;;;7.95;5.30;;;;;;;;;;5092273;28;20062;-69
2021/04/22 00:48:26;;;;;;;9.43;5.20;;;;;;;;;;5092040;28;20100;-75
2021/04/22 00:50:53;;;;;;;11.77;5.65;;;;;;;;;;5092116;28;20051;-68
2021/04/22 00:53:20;;;;;;;7.57;5.35;;;;;;;;;;5090859;28;20098;-68
2021/04/22 00:55:46;;;;;;;10.50;5.45;;;;;;;;;;5091386;28;20024;-67
2021/04/22 00:58:12;;;;;;;9.13;5.18;;;;;;;;;;5092108;28;20020;-71
2021/04/22 01:00:59;;;;;;;9.77;5.60;;;;;;;;;;5091610;28;20035;-71
2021/04/22 01:03:26;;;;;;;10.55;5.70;;;;;;;;;;5091603;28;20044;-70
2021/04/22 01:05:54;;;;;;;10.00;5.50;;;;;;;;;;5092175;28;20023;-68
2021/04/22 01:08:20;;;;;;;7.95;5.32;;;;;;;;;;5083837;28;20028;-68
2021/04/22 01:10:46;;;;;;;11.40;6.30;;;;;;;;;;5072090;28;20031;-68
2021/04/22 01:13:12;;;;;;;10.13;6.05;;;;;;;;;;5071883;28;20048;-68
2021/04/22 01:15:39;;;;;;;9.55;5.72;;;;;;;;;;5087211;28;20363;-67
2021/04/22 01:18:05;;;;;;;12.43;6.18;;;;;;;;;;5071792;28;20032;-69
2021/04/22 01:20:36;;;;;;;10.32;5.30;;;;;;;;;;5087573;28;20031;-69
2021/04/22 01:23:03;;;;;;;11.15;6.05;;;;;;;;;;5071799;28;20364;-70
2021/04/22 01:25:34;;;;;;;11.13;6.18;;;;;;;;;;5072008;28;20020;-68
2021/04/22 01:28:00;;;;;;;13.57;5.95;;;;;;;;;;5071332;28;20496;-75
2021/04/22 01:30:31;;;;;;;11.40;6.57;;;;;;;;;;5071686;28;20025;-67
2021/04/22 01:32:58;;;;;;;13.65;7.40;;;;;;;;;;5071645;28;20025;-68
2021/04/22 01:35:26;;;;;;;11.30;7.03;;;;;;;;;;5071698;28;20575;-70
2021/04/22 01:37:52;;;;;;;11.65;7.03;;;;;;;;;;5071713;28;20439;-68
2021/04/22 01:40:19;;;;;;;10.57;7.82;;;;;;;;;;5087019;28;20016;-68
2021/04/22 01:42:45;;;;;;;14.95;7.75;;;;;;;;;;5071491;28;20048;-69
2021/04/22 01:45:14;;;;;;;9.82;7.03;;;;;;;;;;5087278;28;20059;-68
2021/04/22 01:47:41;;;;;;;11.70;7.88;;;;;;;;;;5071574;28;20107;-68
2021/04/22 01:50:09;;;;;;;10.75;6.75;;;;;;;;;;5087071;28;20020;-70
2021/04/22 01:52:35;;;;;;;14.48;7.32;;;;;;;;;;5071585;28;20046;-69
2021/04/22 01:55:01;;;;;;;10.40;6.25;;;;;;;;;;5071651;28;20024;-68
2021/04/22 01:57:27;;;;;;;9.77;6.28;;;;;;;;;;5087112;28;20418;-68
2021/04/22 01:59:53;;;;;;;10.95;7.25;;;;;;;;;;5087149;28;20016;-67
2021/04/22 02:02:19;;;;;;;9.77;5.90;;;;;;;;;;5071402;28;20025;-68
2021/04/22 02:04:45;;;;;;;10.38;6.65;;;;;;;;;;5071443;28;20032;-67
2021/04/22 02:07:12;;;;;;;9.73;6.82;;;;;;;;;;5086921;28;20017;-68
2021/04/22 02:09:38;;;;;;;8.95;6.03;;;;;;;;;;5071207;28;20099;-68
2021/04/22 02:12:05;;;;;;;11.90;7.00;;;;;;;;;;5071200;28;20105;-67
2021/04/22 02:14:31;;;;;;;10.07;6.38;;;;;;;;;;5071170;28;20032;-69
2021/04/22 02:16:58;;;;;;;9.35;6.28;;;;;;;;;;5086898;28;20031;-68
2021/04/22 02:19:24;;;;;;;13.55;7.18;;;;;;;;;;5086643;28;20435;-72
2021/04/22 02:21:50;;;;;;;12.02;7.00;;;;;;;;;;5071038;28;20526;-67
2021/04/22 02:24:16;;;;;;;9.05;6.20;;;;;;;;;;5071220;28;20514;-68
2021/04/22 02:26:42;;;;;;;9.43;6.13;;;;;;;;;;5086716;28;20029;-68
2021/04/22 02:29:09;;;;;;;10.00;6.43;;;;;;;;;;5071194;28;20035;-67
2021/04/22 02:31:35;;;;;;;9.55;5.82;;;;;;;;;;5071137;28;20150;-68
2021/04/22 02:34:01;;;;;;;13.88;6.70;;;;;;;;;;5070974;28;20476;-70
2021/04/22 02:36:27;;;;;;;10.77;6.15;;;;;;;;;;5071105;28;20036;-74
2021/04/22 02:38:53;;;;;;;9.77;6.65;;;;;;;;;;5070172;28;20020;-71
2021/04/22 02:41:19;;;;;;;15.45;6.57;;;;;;;;;;5073175;28;20056;-70
2021/04/22 02:43:45;;;;;;;8.43;6.10;;;;;;;;;;5079209;28;20028;-72
2021/04/22 02:46:11;;;;;;;9.10;6.38;;;;;;;;;;5095107;28;20016;-68
2021/04/22 02:48:37;;;;;;;9.73;6.85;;;;;;;;;;5095000;28;20104;-68
2021/04/22 02:51:03;;;;;;;10.55;6.60;;;;;;;;;;5095040;28;20070;-68
2021/04/22 02:53:30;;;;;;;10.32;6.30;;;;;;;;;;5094922;28;20017;-68
2021/04/22 02:55:56;;;;;;;10.55;6.88;;;;;;;;;;5094985;28;20020;-68
2021/04/22 02:58:23;;;;;;;8.52;6.05;;;;;;;;;;5094780;28;20475;-68
2021/04/22 03:00:50;;;;;;;9.45;6.15;;;;;;;;;;5094835;28;20032;-74
2021/04/22 03:03:16;;;;;;;12.75;6.60;;;;;;;;;;5094548;28;20039;-70
2021/04/22 03:05:42;;;;;;;10.30;6.68;;;;;;;;;;5094627;28;20016;-70
2021/04/22 03:08:08;;;;;;;11.23;6.90;;;;;;;;;;5091913;28;20021;-68
2021/04/22 03:10:35;;;;;;;9.18;6.35;;;;;;;;;;5094198;28;20364;-68
2021/04/22 03:13:01;;;;;;;10.10;5.82;;;;;;;;;;5094506;28;20069;-68
2021/04/22 03:15:27;;;;;;;8.90;5.95;;;;;;;;;;5094376;28;20016;-68
2021/04/22 03:17:53;;;;;;;9.50;6.05;;;;;;;;;;5093093;28;20471;-68
2021/04/22 03:20:20;;;;;;;9.00;6.45;;;;;;;;;;5094507;28;20090;-68
2021/04/22 03:22:47;;;;;;;11.93;6.43;;;;;;;;;;5092938;28;20035;-69
2021/04/22 03:25:14;;;;;;;9.60;6.20;;;;;;;;;;5092891;28;20028;-69
2021/04/22 03:27:40;;;;;;;9.68;5.75;;;;;;;;;;5094088;28;20103;-70
2021/04/22 03:30:08;;;;;;;10.05;6.32;;;;;;;;;;5094107;28;20112;-69
2021/04/22 03:32:34;;;;;;;11.00;6.43;;;;;;;;;;5092718;28;20034;-68
2021/04/22 03:35:00;;;;;;;8.00;5.47;;;;;;;;;;5092890;28;20020;-68
2021/04/22 03:37:26;;;;;;;11.65;6.13;;;;;;;;;;5094077;28;20058;-68
2021/04/22 03:39:52;;;;;;;9.05;6.18;;;;;;;;;;5094041;28;20062;-67
2021/04/22 03:42:18;;;;;;;10.73;6.53;;;;;;;;;;5093830;28;20040;-68
2021/04/22 03:44:45;;;;;;;8.73;5.50;;;;;;;;;;5092717;28;20630;-69
2021/04/22 03:47:11;;;;;;;9.10;5.65;;;;;;;;;;5093791;28;20059;-68
2021/04/22 03:49:38;;;;;;;9.95;6.45;;;;;;;;;;5093834;28;20418;-67
2021/04/22 03:52:04;;;;;;;12.20;6.60;;;;;;;;;;5093364;28;20061;-69
2021/04/22 03:54:31;;;;;;;8.50;6.03;;;;;;;;;;5092391;28;20119;-69
2021/04/22 03:56:57;;;;;;;8.85;5.88;;;;;;;;;;5093644;28;20008;-68
2021/04/22 03:59:23;;;;;;;8.63;5.53;;;;;;;;;;5092308;28;20475;-68
2021/04/22 04:01:49;;;;;;;10.95;6.35;;;;;;;;;;5092206;28;20391;-68
2021/04/22 04:04:15;;;;;;;10.05;5.53;;;;;;;;;;5093370;28;20024;-67
2021/04/22 04:06:41;;;;;;;8.35;6.18;;;;;;;;;;5093611;28;20502;-68
2021/04/22 04:09:07;;;;;;;9.30;5.88;;;;;;;;;;5093465;28;20090;-68
2021/04/22 04:11:34;;;;;;;12.30;6.00;;;;;;;;;;5093494;28;20020;-75
2021/04/22 04:14:00;;;;;;;9.48;6.05;;;;;;;;;;5093252;28;20530;-75
2021/04/22 04:16:26;;;;;;;11.52;6.35;;;;;;;;;;5093194;28;20024;-70
2021/04/22 04:18:52;;;;;;;9.45;5.90;;;;;;;;;;5093295;28;20042;-70
2021/04/22 04:21:18;;;;;;;8.52;5.35;;;;;;;;;;5091771;28;20016;-69
2021/04/22 04:23:44;;;;;;;9.77;5.85;;;;;;;;;;5093110;28;20032;-69
2021/04/22 04:26:10;;;;;;;9.68;5.93;;;;;;;;;;5093213;28;20024;-69
2021/04/22 04:28:36;;;;;;;10.85;5.95;;;;;;;;;;5093088;28;20344;-68
2021/04/22 04:31:03;;;;;;;9.88;6.10;;;;;;;;;;5091866;28;20081;-68
2021/04/22 04:33:29;;;;;;;10.52;6.03;;;;;;;;;;5092798;28;20484;-69
2021/04/22 04:35:55;;;;;;;9.27;6.00;;;;;;;;;;5092744;28;20093;-69
2021/04/22 04:38:21;;;;;;;9.38;6.00;;;;;;;;;;5091958;28;20471;-71
2021/04/22 04:40:47;;;;;;;11.63;6.28;;;;;;;;;;5090830;28;20052;-68
2021/04/22 04:43:14;;;;;;;11.23;6.70;;;;;;;;;;5092008;28;20035;-69
2021/04/22 04:45:40;;;;;;;9.23;6.47;;;;;;;;;;5091930;28;20429;-71
2021/04/22 04:48:06;;;;;;;11.70;6.85;;;;;;;;;;5092044;28;20028;-72
2021/04/22 04:50:32;;;;;;;9.65;6.18;;;;;;;;;;5091911;28;20534;-68
2021/04/22 04:52:58;;;;;;;9.88;6.50;;;;;;;;;;5091845;28;20028;-69
2021/04/22 04:55:24;;;;;;;8.90;5.78;;;;;;;;;;5091821;28;20051;-68
2021/04/22 04:57:51;;;;;;;10.23;5.88;;;;;;;;;;5091786;28;20030;-69
2021/04/22 05:00:17;;;;;;;8.90;6.25;;;;;;;;;;5091527;28;20012;-68
2021/04/22 05:02:44;;;;;;;8.75;5.70;;;;;;;;;;5090107;28;20600;-68
2021/04/22 05:05:10;;;;;;;10.50;5.93;;;;;;;;;;5092324;28;20055;-68
2021/04/22 05:07:37;;;;;;;10.23;6.70;;;;;;;;;;5092447;28;20028;-68
2021/04/22 05:10:04;;;;;;;9.77;6.35;;;;;;;;;;5092405;28;20016;-68
2021/04/22 05:12:30;;;;;;;9.82;6.20;;;;;;;;;;5092040;28;20102;-68
2021/04/22 05:14:56;;;;;;;9.38;6.30;;;;;;;;;;5092033;28;20032;-68
2021/04/22 05:17:22;;;;;;;11.57;6.63;;;;;;;;;;5091785;28;20023;-68
2021/04/22 05:19:49;;;;;;;9.85;6.63;;;;;;;;;;5092009;28;20055;-70
2021/04/22 05:22:15;;;;;;;9.80;6.03;;;;;;;;;;5092042;28;20120;-68
2021/04/22 05:24:41;;;;;;;9.48;6.43;;;;;;;;;;5092183;28;20055;-68
2021/04/22 05:27:07;;;;;;;9.80;6.30;;;;;;;;;;5090763;28;20023;-71
2021/04/22 05:29:33;;;;;;;10.93;6.50;;;;;;;;;;5092103;28;20057;-70
2021/04/22 05:31:59;;;;;;;11.73;6.50;;;;;;;;;;5091986;28;20382;-70
2021/04/22 05:34:25;;;;;;;10.68;6.40;;;;;;;;;;5091861;28;20644;-68
2021/04/22 05:36:52;;;;;;;12.40;6.18;;;;;;;;;;5091897;28;20039;-70
2021/04/22 05:39:22;;;;;;;8.55;5.18;;;;;;;;;;5091716;28;20020;-72
2021/04/22 05:41:48;;;;;;;9.15;5.28;;;;;;;;;;5091481;28;20040;-69
2021/04/22 05:44:14;;;;;;;12.77;5.50;;;;;;;;;;5091817;28;20035;-69
2021/04/22 05:46:41;;;;;;;10.43;6.07;;;;;;;;;;5091808;28;20052;-68
2021/04/22 05:49:07;;;;;;;9.68;5.18;;;;;;;;;;5090376;28;20153;-68
2021/04/22 05:51:35;;;;;;;13.70;5.70;;;;;;;;;;5091658;28;20501;-68
2021/04/22 05:54:01;;;;;;;8.57;5.22;;;;;;;;;;5091512;28;20111;-70
2021/04/22 05:56:27;;;;;;;11.05;5.65;;;;;;;;;;5091648;28;20074;-71
2021/04/22 05:58:54;;;;;;;7.25;4.85;;;;;;;;;;5091620;28;20024;-68
2021/04/22 06:01:20;;;;;;;7.38;4.38;;;;;;;;;;5090523;28;20022;-69
2021/04/22 06:03:46;;;;;;;11.98;5.63;;;;;;;;;;5091220;28;20080;-73
2021/04/22 06:06:12;;;;;;;7.57;5.13;;;;;;;;;;5089879;28;20020;-68
2021/04/22 06:08:38;;;;;;;10.18;4.65;;;;;;;;;;5091345;28;20069;-69
2021/04/22 06:11:04;;;;;;;9.75;4.85;;;;;;;;;;5091621;28;20048;-68
2021/04/22 06:13:30;;;;;;;7.30;4.80;;;;;;;;;;5090103;28;20012;-69
2021/04/22 06:15:56;;;;;;;9.95;5.38;;;;;;;;;;5093589;28;20024;-71
2021/04/22 06:18:23;;;;;;;10.02;5.05;;;;;;;;;;5095401;28;20059;-70
2021/04/22 06:20:49;;;;;;;8.30;4.65;;;;;;;;;;5095437;28;20068;-69
2021/04/22 06:23:15;;;;;;;7.35;4.90;;;;;;;;;;5095538;28;20111;-68
2021/04/22 06:25:41;;;;;;;6.97;4.15;;;;;;;;;;5093896;28;20043;-70
2021/04/22 06:28:07;;;;;;;7.28;4.63;;;;;;;;;;5095155;28;20028;-70
2021/04/22 06:30:33;;;;;;;7.75;4.72;;;;;;;;;;5095316;28;20016;-70
2021/04/22 06:32:59;;;;;;;10.55;4.57;;;;;;;;;;5093887;28;20720;-69
2021/04/22 06:35:25;;;;;;;8.02;4.68;;;;;;;;;;5093896;28;20027;-68
2021/04/22 06:37:51;;;;;;;7.53;4.57;;;;;;;;;;5095133;28;20012;-69
2021/04/22 06:40:19;;;;;;;7.70;4.57;;;;;;;;;;5095114;28;20028;-69
2021/04/22 06:42:45;;;;;;;13.82;5.40;;;;;;;;;;5094980;28;20032;-69
2021/04/22 06:45:12;;;;;;;9.00;5.03;;;;;;;;;;5093747;28;20145;-68
2021/04/22 06:47:38;;;;;;;8.82;4.90;;;;;;;;;;5095030;28;20024;-68
2021/04/22 06:50:08;;;;;;;8.75;4.40;;;;;;;;;;5093648;28;20107;-69
2021/04/22 06:52:34;;;;;;;8.95;5.10;;;;;;;;;;5093552;28;20034;-70
2021/04/22 06:55:00;;;;;;;9.05;5.00;;;;;;;;;;5093625;28;20420;-70
2021/04/22 06:57:26;;;;;;;7.72;4.70;;;;;;;;;;5094426;28;20076;-70
2021/04/22 06:59:52;;;;;;;9.40;4.30;;;;;;;;;;5092808;28;20016;-69
2021/04/22 07:02:18;;;;;;;7.50;4.13;;;;;;;;;;5094163;28;20051;-69
2021/04/22 07:04:45;;;;;;;6.00;3.92;;;;;;;;;;5092357;28;20428;-70
2021/04/22 07:07:11;;;;;;;7.53;4.45;;;;;;;;;;5094321;28;20032;-76
2021/04/22 07:09:38;;;;;;;9.82;4.72;;;;;;;;;;5094050;28;21215;-69
2021/04/22 07:12:04;;;;;;;8.65;4.72;;;;;;;;;;5093528;28;20024;-69
2021/04/22 07:14:30;;;;;;;15.57;4.32;;;;;;;;;;5092957;28;20024;-70
2021/04/22 07:16:56;;;;;;;8.15;4.35;;;;;;;;;;5094018;28;20016;-75
2021/04/22 07:19:22;;;;;;;8.50;4.10;;;;;;;;;;5094116;28;20102;-79
2021/04/22 07:21:48;;;;;;;9.07;4.20;;;;;;;;;;5094084;28;20081;-68
2021/04/22 07:24:14;;;;;;;10.65;4.00;;;;;;;;;;5092327;28;20032;-68
2021/04/22 07:26:40;;;;;;;6.35;3.40;;;;;;;;;;5093146;28;20091;-68
2021/04/22 07:29:06;;;;;;;9.45;4.30;;;;;;;;;;5092685;28;20081;-69
2021/04/22 07:31:33;;;;;;;7.28;4.10;;;;;;;;;;5093152;28;20016;-69
2021/04/22 07:33:59;;;;;;;9.73;3.72;;;;;;;;;;5094116;28;20077;-70
2021/04/22 07:36:25;;;;;;;7.97;3.80;;;;;;;;;;5092574;28;20028;-70
2021/04/22 07:38:51;;;;;;;7.35;3.50;;;;;;;;;;5093927;28;20374;-70
2021/04/22 07:41:17;;;;;;;9.25;4.03;;;;;;;;;;5093604;28;20043;-71
2021/04/22 07:43:43;;;;;;;6.75;3.25;;;;;;;;;;5093811;28;20091;-71
2021/04/22 07:46:09;;;;;;;7.50;3.67;;;;;;;;;;5092375;28;20024;-69
2021/04/22 07:48:35;;;;;;;6.40;3.10;;;;;;;;;;5088131;28;20028;-69
2021/04/22 07:51:01;;;;;;;6.18;3.85;;;;;;;;;;5093615;28;20028;-68
2021/04/22 07:53:28;;;;;;;4.95;3.17;;;;;;;;;;5093440;28;20027;-68
2021/04/22 07:55:54;;;;;;;4.95;2.70;;;;;;;;;;5093608;28;20024;-69
2021/04/22 07:58:20;;;;;;;6.45;3.35;;;;;;;;;;5091896;28;20031;-73
2021/04/22 08:00:47;;;;;;;5.82;3.00;;;;;;;;;;5083260;28;20475;-69
2021/04/22 08:03:14;;;;;;;10.30;3.72;;;;;;;;;;5080722;28;20122;-68
2021/04/22 08:05:40;;;;;;;6.63;3.28;;;;;;;;;;5081501;28;20019;-77
2021/04/22 08:08:10;;;;;;;10.80;3.88;;;;;;;;;;5072944;28;20025;-67
2021/04/22 08:10:38;;;;;;;17.85;3.38;;;;;;;;;;5088997;28;20024;-76
2021/04/22 08:13:04;;;;;;;8.63;3.40;;;;;;;;;;5092805;28;20486;-71
2021/04/22 08:15:32;;;;;;;11.45;3.28;;;;;;;;;;5092149;28;20115;-69
2021/04/22 08:17:58;;;;;;;7.80;3.70;;;;;;;;;;5093303;28;20020;-67
2021/04/22 08:20:25;;;;;;;6.25;3.67;;;;;;;;;;5093082;28;20044;-72
2021/04/22 08:22:52;;;;;;;8.90;3.33;;;;;;;;;;5091649;28;20501;-78
2021/04/22 08:25:19;;;;;;;6.97;3.95;;;;;;;;;;5093197;28;20080;-68
2021/04/22 08:27:49;;;;;;;7.32;4.00;;;;;;;;;;5093128;28;20020;-72
2021/04/22 08:30:17;;;;;;;10.63;3.65;;;;;;;;;;5091623;28;20024;-72
2021/04/22 08:32:43;;;;;;;6.90;3.70;;;;;;;;;;5091296;28;20031;-79
2021/04/22 08:35:10;;;;;;;7.10;3.92;;;;;;;;;;5091674;28;20177;-77
2021/04/22 08:37:36;;;;;;;10.45;3.83;;;;;;;;;;5092831;28;20028;-75
2021/04/22 08:40:05;;;;;;;7.70;4.00;;;;;;;;;;5091421;28;20049;-73
2021/04/22 08:42:31;;;;;;;8.00;4.18;;;;;;;;;;5091102;28;20553;-79
2021/04/22 08:44:59;;;;;;;5.82;3.50;;;;;;;;;;5091361;28;20601;-70
2021/04/22 08:47:25;;;;;;;8.25;3.88;;;;;;;;;;5092583;28;20386;-72
2021/04/22 08:49:51;;;;;;;6.53;2.97;;;;;;;;;;5092963;28;20020;-73
2021/04/22 08:52:17;;;;;;;7.32;3.65;;;;;;;;;;5092720;28;20020;-72
2021/04/22 08:54:43;;;;;;;7.50;3.10;;;;;;;;;;5092856;28;20031;-74
2021/04/22 08:57:09;;;;;;;6.97;3.42;;;;;;;;;;5093047;28;20024;-72
2021/04/22 08:59:36;;;;;;;6.65;3.60;;;;;;;;;;5092775;28;20024;-72
2021/04/22 09:02:02;;;;;;;10.25;3.83;;;;;;;;;;5092081;28;20032;-68
2021/04/22 09:04:28;;;;;;;21.50;4.45;;;;;;;;;;5092385;28;20027;-79
2021/04/22 09:06:54;;;;;;;6.78;3.38;;;;;;;;;;5090959;28;20486;-77
2021/04/22 09:09:20;;;;;;;8.55;4.53;;;;;;;;;;5092235;28;20080;-78
2021/04/22 09:11:47;;;;;;;6.93;3.53;;;;;;;;;;5090783;28;20103;-79
2021/04/22 09:14:15;;;;;;;7.00;3.78;;;;;;;;;;5092211;28;20024;-85
2021/04/22 09:16:41;;;;;;;11.85;5.55;;;;;;;;;;5091100;28;20055;-75
2021/04/22 09:19:28;;;;;;;8.23;4.20;;;;;;;;;;5091256;28;20474;-75
2021/04/22 09:21:58;;;;;;;6.80;3.75;;;;;;;;;;5092153;28;20063;-75
2021/04/22 09:24:26;;;;;;;9.80;4.70;;;;;;;;;;5091322;28;20050;-74
2021/04/22 09:26:52;;;;;;;9.15;4.38;;;;;;;;;;5089285;28;20020;-71
2021/04/22 09:29:38;;;;;;;10.25;4.40;;;;;;;;;;5090372;28;20162;-67
2021/04/22 09:32:08;;;;;;;8.88;3.85;;;;;;;;;;5091104;28;20039;-67
2021/04/22 09:34:34;;;;;;;9.80;4.60;;;;;;;;;;5091854;28;20036;-73
2021/04/22 09:37:00;;;;;;;6.38;3.35;;;;;;;;;;5091778;28;20028;-69
2021/04/22 09:39:27;;;;;;;5.57;3.33;;;;;;;;;;5091893;28;20028;-67
2021/04/22 09:41:59;;;;;;;6.95;3.60;;;;;;;;;;5091654;28;20472;-69
2021/04/22 09:44:25;;;;;;;9.27;3.57;;;;;;;;;;5091799;28;20024;-73
2021/04/22 09:47:02;;;;;;;8.57;4.10;;;;;;;;;;5091770;28;20356;-73
2021/04/22 09:49:28;;;;;;;5.43;3.50;;;;;;;;;;5091378;28;20016;-76
2021/04/22 09:52:04;;;;;;;8.43;3.50;;;;;;;;;;5091715;28;20451;-75
2021/04/22 09:54:30;;;;;;;6.65;3.58;;;;;;;;;;5090016;28;20035;-72
2021/04/22 09:56:56;;;;;;;8.00;3.80;;;;;;;;;;5091346;28;20107;-77
2021/04/22 09:59:24;;;;;;;7.45;3.70;;;;;;;;;;5091604;28;20024;-75
2021/04/22 10:02:01;;;;;;;5.45;3.05;;;;;;;;;;5089958;28;20556;-74
2021/04/22 10:04:46;;;;;;;6.97;2.92;;;;;;;;;;5091597;28;20024;-68
2021/04/22 10:07:19;;;;;;;9.60;3.78;;;;;;;;;;5091583;28;20023;-77
2021/04/22 10:09:45;;;;;;;5.60;3.20;;;;;;;;;;5091111;28;20031;-75
2021/04/22 10:12:19;;;;;;;5.93;3.30;;;;;;;;;;5091120;28;20122;-78
2021/04/22 10:14:45;;;;;;;8.65;3.83;;;;;;;;;;5091349;28;20513;-76
2021/04/22 10:17:19;;;;;;;4.97;3.05;;;;;;;;;;5091392;28;20024;-80
2021/04/22 10:19:56;;;;;;;5.10;3.20;;;;;;;;;;5091802;28;20081;-82
2021/04/22 10:22:26;;;;;;;6.45;2.92;;;;;;;;;;5090161;28;20474;-81
2021/04/22 10:24:57;;;;;;;5.00;2.78;;;;;;;;;;5091218;28;20028;-72
2021/04/22 10:27:27;;;;;;;6.95;2.63;;;;;;;;;;5091122;28;20099;-72
2021/04/22 10:29:53;;;;;;;7.97;2.88;;;;;;;;;;5091224;28;20028;-69
2021/04/22 10:32:20;;;;;;;4.40;2.25;;;;;;;;;;5091171;28;20020;-69
2021/04/22 10:34:47;;;;;;;6.30;2.80;;;;;;;;;;5091101;28;20502;-71
2021/04/22 10:37:13;;;;;;;6.40;3.28;;;;;;;;;;5091233;28;20024;-72
2021/04/22 10:39:39;;;;;;;6.18;2.90;;;;;;;;;;5089440;28;20025;-74
2021/04/22 10:42:06;;;;;;;8.38;2.72;;;;;;;;;;5090511;28;20097;-70
2021/04/22 10:44:32;;;;;;;6.03;3.10;;;;;;;;;;5089308;28;20096;-72
2021/04/22 10:46:59;;;;;;;4.68;2.65;;;;;;;;;;5089433;28;20024;-70
2021/04/22 10:49:25;;;;;;;5.55;2.38;;;;;;;;;;5090979;28;20070;-73
2021/04/22 10:51:52;;;;;;;4.97;2.75;;;;;;;;;;5091024;28;20016;-70
2021/04/22 10:54:19;;;;;;;4.38;2.20;;;;;;;;;;5089727;28;20028;-68
2021/04/22 10:56:46;;;;;;;4.38;2.40;;;;;;;;;;5090818;28;20031;-68
2021/04/22 10:59:19;;;;;;;4.95;2.30;;;;;;;;;;5090750;28;20371;-69
2021/04/22 11:01:45;;;;;;;5.72;2.40;;;;;;;;;;5092470;28;20470;-70
2021/04/22 11:04:11;;;;;;;5.30;2.60;;;;;;;;;;5093149;28;20546;-69
2021/04/22 11:06:39;;;;;;;4.95;2.58;;;;;;;;;;5094419;28;20019;-71
2021/04/22 11:09:31;;;;;;;6.32;2.83;;;;;;;;;;5094268;28;20028;-69
2021/04/22 11:11:59;;;;;;;5.82;2.28;;;;;;;;;;5090644;28;20036;-72
2021/04/22 11:14:37;;;;;;;6.47;2.75;;;;;;;;;;5094266;28;20181;-69
2021/04/22 11:17:04;;;;;;;8.15;3.28;;;;;;;;;;5094266;28;20114;-68
2021/04/22 11:19:36;;;;;;;4.68;3.00;;;;;;;;;;5094261;28;20095;-69
2021/04/22 11:22:02;;;;;;;;;;;;;;;;;;5093243;28;20113;-69
2021/04/22 11:24:33;;;;;;;7.10;2.80;;;;;;;;;;5092920;28;20435;-68
2021/04/22 11:27:03;;;;;;;4.40;2.13;;;;;;;;;;5094007;28;20099;-69
2021/04/22 11:29:40;;;;;;;6.13;2.55;;;;;;;;;;5093038;28;20103;-69
2021/04/22 11:32:18;;;;;;;14.45;2.20;;;;;;;;;;5094124;28;20016;-69
2021/04/22 11:34:44;;;;;;;9.77;2.58;;;;;;;;;;5092838;28;20540;-71
2021/04/22 11:37:15;;;;;;;7.13;2.45;;;;;;;;;;5092857;28;20051;-69
2021/04/22 11:39:41;;;;;;;6.63;2.25;;;;;;;;;;5093980;28;20024;-70
2021/04/22 11:42:07;;;;;;;5.38;2.25;;;;;;;;;;5092400;28;20109;-69
2021/04/22 11:44:35;;;;;;;9.07;2.17;;;;;;;;;;5094001;28;20020;-67
2021/04/22 11:47:01;;;;;;;5.43;2.05;;;;;;;;;;5093411;28;20031;-68
2021/04/22 11:49:31;;;;;;;8.32;2.38;;;;;;;;;;5093794;28;20012;-68
2021/04/22 11:51:58;;;;;;;4.93;2.30;;;;;;;;;;5093846;28;20020;-70
2021/04/22 11:54:27;;;;;;;3.83;2.03;;;;;;;;;;5093991;28;20026;-69
2021/04/22 11:56:59;;;;;;;5.78;1.75;;;;;;;;;;5093579;28;20085;-69
2021/04/22 11:59:26;;;;;;;4.22;2.00;;;;;;;;;;5092184;28;20027;-68
2021/04/22 12:01:53;;;;;;;4.22;1.88;;;;;;;;;;5093230;28;20035;-68
2021/04/22 12:04:20;;;;;;;5.22;2.33;;;;;;;;;;5092031;28;20028;-67
2021/04/22 12:06:52;;;;;;;5.95;2.00;;;;;;;;;;5093556;28;20020;-71
2021/04/22 12:09:32;;;;;;;4.07;1.92;;;;;;;;;;5093686;28;20020;-71
2021/04/22 12:12:12;;;;;;;5.43;1.90;;;;;;;;;;5091708;28;20479;-75
2021/04/22 12:14:39;;;;;;;4.43;2.15;;;;;;;;;;5093128;28;20041;-72
2021/04/22 12:17:05;;;;;;;5.97;2.03;;;;;;;;;;5091594;28;20023;-74
2021/04/22 12:19:31;;;;;;;4.55;2.28;;;;;;;;;;5093175;28;20047;-72
2021/04/22 12:22:01;;;;;;;5.90;2.40;;;;;;;;;;5093137;28;20093;-74
2021/04/22 12:24:27;;;;;;;6.65;2.63;;;;;;;;;;5093171;28;20020;-73
2021/04/22 12:26:53;;;;;;;5.78;2.83;;;;;;;;;;5093055;28;20560;-71
2021/04/22 12:29:20;;;;;;;7.75;4.25;;;;;;;;;;5093128;28;20106;-72
2021/04/22 12:32:00;;;;;;;7.10;3.40;;;;;;;;;;5092834;28;20092;-70
2021/04/22 12:34:30;;;;;;;8.10;5.03;;;;;;;;;;5091341;28;20475;-71
2021/04/22 12:36:56;;;;;;;7.85;4.50;;;;;;;;;;5091619;28;20122;-73
2021/04/22 12:39:23;;;;;;;7.38;3.60;;;;;;;;;;5092944;28;20085;-68
2021/04/22 12:41:49;;;;;;;6.10;3.72;;;;;;;;;;5091329;28;20044;-75
2021/04/22 12:44:19;;;;;;;6.00;3.83;;;;;;;;;;5092784;28;20034;-67
2021/04/22 12:46:45;;;;;;;7.28;4.47;;;;;;;;;;5089932;28;20048;-67
2021/04/22 12:49:16;;;;;;;9.82;4.78;;;;;;;;;;5072622;28;20027;-68
2021/04/22 12:51:43;;;;;;;13.80;5.22;;;;;;;;;;5072658;28;20020;-69
2021/04/22 12:54:09;;;;;;;10.18;3.70;;;;;;;;;;5072153;28;20031;-72
2021/04/22 12:56:35;;;;;;;8.15;4.00;;;;;;;;;;5070964;28;20028;-69
2021/04/22 12:59:06;;;;;;;6.65;3.58;;;;;;;;;;5072293;28;20496;-69
2021/04/22 13:01:33;;;;;;;7.90;3.00;;;;;;;;;;5070956;28;20017;-72
2021/04/22 13:04:01;;;;;;;7.50;3.78;;;;;;;;;;5070816;28;20040;-71
2021/04/22 13:06:28;;;;;;;6.43;3.47;;;;;;;;;;5072116;28;20099;-73
2021/04/22 13:08:55;;;;;;;9.63;3.53;;;;;;;;;;5072008;28;20024;-67
2021/04/22 13:11:24;;;;;;;8.52;4.07;;;;;;;;;;5071926;28;20467;-69
2021/04/22 13:13:53;;;;;;;10.52;3.90;;;;;;;;;;5071077;28;20028;-66
2021/04/22 13:16:21;;;;;;;10.30;3.88;;;;;;;;;;5077912;28;20027;-67
2021/04/22 13:18:48;;;;;;;9.18;4.85;;;;;;;;;;5092852;28;20024;-70
2021/04/22 13:21:15;;;;;;;8.55;4.10;;;;;;;;;;5092880;28;20515;-67
2021/04/22 13:23:42;;;;;;;11.88;5.05;;;;;;;;;;5090939;28;20087;-67
2021/04/22 13:26:14;;;;;;;12.32;6.18;;;;;;;;;;5092827;28;20028;-69
2021/04/22 13:28:40;;;;;;;6.57;3.60;;;;;;;;;;5092466;28;20035;-69
2021/04/22 13:31:15;;;;;;;6.80;3.55;;;;;;;;;;5091846;28;20491;-70
2021/04/22 13:33:41;;;;;;;11.35;3.83;;;;;;;;;;5090680;28;20111;-69
2021/04/22 13:36:10;;;;;;;11.82;4.35;;;;;;;;;;5090499;28;20024;-66
2021/04/22 13:38:36;;;;;;;11.05;4.20;;;;;;;;;;5090383;28;20024;-70
2021/04/22 13:41:08;;;;;;;12.35;4.95;;;;;;;;;;5091621;28;20044;-70
2021/04/22 13:43:36;;;;;;;10.25;6.28;;;;;;;;;;5091568;28;20044;-71
2021/04/22 13:46:03;;;;;;;7.75;4.00;;;;;;;;;;5091680;28;20097;-70
2021/04/22 13:48:32;;;;;;;9.02;4.50;;;;;;;;;;5090122;28;20065;-71
2021/04/22 13:51:09;;;;;;;9.52;5.53;;;;;;;;;;5091874;28;20095;-68
2021/04/22 13:53:35;;;;;;;11.40;5.07;;;;;;;;;;5091976;28;20024;-68
2021/04/22 13:56:01;;;;;;;10.43;4.82;;;;;;;;;;5090661;28;20384;-66
2021/04/22 13:58:31;;;;;;;10.82;5.50;;;;;;;;;;5091463;28;20097;-67
2021/04/22 14:00:57;;;;;;;12.10;6.55;;;;;;;;;;5087487;28;20056;-69
2021/04/22 14:03:30;;;;;;;14.02;5.88;;;;;;;;;;5089910;28;20039;-70
2021/04/22 14:05:56;;;;;;;10.73;5.13;;;;;;;;;;5089586;28;20109;-69
2021/04/22 14:08:28;;;;;;;13.85;7.63;;;;;;;;;;5090494;28;20027;-69
2021/04/22 14:10:58;;;;;;;12.15;7.65;;;;;;;;;;5090155;28;20596;-71
2021/04/22 14:13:26;;;;;;;11.80;7.28;;;;;;;;;;5090245;28;20061;-72
2021/04/22 14:15:52;;;;;;;10.07;5.25;;;;;;;;;;5091288;28;20020;-72
2021/04/22 14:18:18;;;;;;;15.57;6.88;;;;;;;;;;5091354;28;20423;-70
2021/04/22 14:20:44;;;;;;;14.05;6.38;;;;;;;;;;5091246;28;20460;-72
2021/04/22 14:23:10;;;;;;;9.40;5.60;;;;;;;;;;5089594;28;20037;-68
2021/04/22 14:25:36;;;;;;;14.57;6.88;;;;;;;;;;5092033;28;20020;-72
2021/04/22 14:28:02;;;;;;;8.43;5.88;;;;;;;;;;5091785;28;20031;-69
2021/04/22 14:30:28;;;;;;;8.65;4.70;;;;;;;;;;5089894;28;20081;-68
2021/04/22 14:32:55;;;;;;;8.07;5.45;;;;;;;;;;5090990;28;20070;-68
2021/04/22 14:35:21;;;;;;;10.75;5.90;;;;;;;;;;5090705;28;20467;-68
2021/04/22 14:37:47;;;;;;;14.23;5.78;;;;;;;;;;5093617;28;20459;-67
2021/04/22 14:40:13;;;;;;;9.75;6.28;;;;;;;;;;5093322;28;20024;-68